createdAt,value
2023-04-01T00:02:29.350Z,84.35
2023-04-01T00:05:03.035Z,84.31
2023-04-01T00:07:36.808Z,84.13
2023-04-01T00:10:12.923Z,84.16
2023-04-01T00:12:46.948Z,84.16
2023-04-01T00:15:20.474Z,83.99
2023-04-01T00:17:54.031Z,83.81
2023-04-01T00:20:27.885Z,83.75
2023-04-01T00:23:01.815Z,83.76
2023-04-01T00:25:35.743Z,83.54
2023-04-01T00:28:09.771Z,83.47
2023-04-01T00:30:43.582Z,83.33
2023-04-01T00:33:17.862Z,83.30
2023-04-01T00:35:51.408Z,83.10
2023-04-01T00:38:24.939Z,83.15
2023-04-01T00:41:02.180Z,83.20
2023-04-01T00:43:36.881Z,83.26
2023-04-01T00:46:10.737Z,83.17
2023-04-01T00:48:48.517Z,83.26
2023-04-01T00:51:25.419Z,83.14
2023-04-01T00:54:00.813Z,83.01
2023-04-01T00:56:38.297Z,83.16
2023-04-01T00:59:17.032Z,83.15
2023-04-01T01:01:50.773Z,83.33
2023-04-01T01:04:29.554Z,83.23
2023-04-01T01:07:16.991Z,82.98
2023-04-01T01:09:58.532Z,82.99
2023-04-01T01:12:38.585Z,82.74
2023-04-01T01:15:22.249Z,82.81
2023-04-01T01:18:05.879Z,82.82
2023-04-01T01:21:01.949Z,82.86
2023-04-01T01:24:08.278Z,83.14
2023-04-01T01:27:02.948Z,83.25
2023-04-01T01:30:22.228Z,83.67
2023-04-01T01:33:15.281Z,83.76
2023-04-01T01:35:52.226Z,83.82
2023-04-01T01:38:29.350Z,83.71
2023-04-01T01:41:10.106Z,83.78
2023-04-01T01:43:47.869Z,83.77
2023-04-01T01:46:26.666Z,83.76
2023-04-01T01:49:03.122Z,83.83
2023-04-01T01:51:36.914Z,83.63
2023-04-01T01:54:16.508Z,83.38
2023-04-01T01:56:55.919Z,83.38
2023-04-01T01:59:32.106Z,83.29
2023-04-01T02:02:09.334Z,83.42
2023-04-01T02:04:46.801Z,83.54
2023-04-01T02:07:28.828Z,83.65
2023-04-01T02:10:03.927Z,83.76
2023-04-01T02:12:40.357Z,83.65
2023-04-01T02:15:17.841Z,83.66
2023-04-01T02:17:53.716Z,83.60
2023-04-01T02:20:30.744Z,83.51
2023-04-01T02:23:05.046Z,83.70
2023-04-01T02:25:40.628Z,83.54
2023-04-01T02:28:18.546Z,83.43
2023-04-01T02:30:52.691Z,83.41
2023-04-01T02:33:27.241Z,83.22
2023-04-01T02:36:01.910Z,82.88
2023-04-01T02:38:38.367Z,82.99
2023-04-01T02:41:12.011Z,83.00
2023-04-01T02:43:46.728Z,83.24
2023-04-01T02:46:20.258Z,83.06
2023-04-01T02:48:55.048Z,82.99
2023-04-01T02:51:32.122Z,82.82
2023-04-01T02:54:06.863Z,82.93
2023-04-01T02:56:40.315Z,83.50
2023-04-01T02:59:13.821Z,83.79
2023-04-01T03:01:47.745Z,83.68
2023-04-01T03:04:21.713Z,83.69
2023-04-01T03:06:56.688Z,83.77
2023-04-01T03:09:31.441Z,83.65
2023-04-01T03:12:05.520Z,83.51
2023-04-01T03:14:39.692Z,83.60
2023-04-01T03:17:13.709Z,83.31
2023-04-01T03:19:49.857Z,82.92
2023-04-01T03:22:23.693Z,83.00
2023-04-01T03:24:57.278Z,82.86
2023-04-01T03:27:31.320Z,82.92
2023-04-01T03:30:10.854Z,82.99
2023-04-01T03:32:50.067Z,83.21
2023-04-01T03:35:24.257Z,83.14
2023-04-01T03:37:58.983Z,83.05
2023-04-01T03:40:34.420Z,82.90
2023-04-01T03:43:28.408Z,82.96
2023-04-01T03:46:02.081Z,82.92
2023-04-01T03:48:36.872Z,82.76
2023-04-01T03:51:12.973Z,82.66
2023-04-01T03:53:46.650Z,82.57
2023-04-01T03:56:20.241Z,82.51
2023-04-01T03:58:57.540Z,82.37
2023-04-01T04:01:31.981Z,82.39
2023-04-01T04:04:07.101Z,82.55
2023-04-01T04:06:41.184Z,82.46
2023-04-01T04:09:15.500Z,82.42
2023-04-01T04:11:49.776Z,82.23
2023-04-01T04:14:24.612Z,82.17
2023-04-01T04:16:58.631Z,82.03
2023-04-01T04:19:36.578Z,82.05
2023-04-01T04:22:10.562Z,81.95
2023-04-01T04:24:44.463Z,81.90
2023-04-01T04:27:20.254Z,81.80
2023-04-01T04:30:02.126Z,81.91
2023-04-01T04:32:36.930Z,81.78
2023-04-01T04:35:12.398Z,81.73
2023-04-01T04:37:47.479Z,81.73
2023-04-01T04:40:21.717Z,81.72
2023-04-01T04:42:55.459Z,81.79
2023-04-01T04:45:29.405Z,81.54
2023-04-01T04:48:03.552Z,81.30
2023-04-01T04:50:38.079Z,81.08
2023-04-01T04:53:32.263Z,80.96
2023-04-01T04:56:06.224Z,80.78
2023-04-01T04:58:46.075Z,80.64
2023-04-01T05:01:23.520Z,80.76
2023-04-01T05:03:57.546Z,80.76
2023-04-01T05:06:32.761Z,80.79
2023-04-01T05:09:17.877Z,80.85
2023-04-01T05:11:51.767Z,80.67
2023-04-01T05:14:26.282Z,80.52
2023-04-01T05:17:05.892Z,80.75
2023-04-01T05:19:43.694Z,80.52
2023-04-01T05:22:17.949Z,80.40
2023-04-01T05:24:52.184Z,80.54
2023-04-01T05:27:25.924Z,80.68
2023-04-01T05:29:59.371Z,80.72
2023-04-01T05:32:56.865Z,80.43
2023-04-01T05:35:30.992Z,80.13
2023-04-01T05:38:05.369Z,79.42
2023-04-01T05:40:39.189Z,79.27
2023-04-01T05:43:13.201Z,79.59
2023-04-01T05:45:47.288Z,80.04
2023-04-01T05:48:20.987Z,80.03
2023-04-01T05:50:54.510Z,80.10
2023-04-01T05:53:28.137Z,79.72
2023-04-01T05:56:07.111Z,78.75
2023-04-01T05:58:44.436Z,77.99
2023-04-01T06:01:19.634Z,77.70
2023-04-01T06:03:54.298Z,77.71
2023-04-01T06:06:34.895Z,77.96
2023-04-01T06:09:19.197Z,78.19
2023-04-01T06:12:15.960Z,78.37
2023-04-01T06:15:14.192Z,78.16
2023-04-01T06:18:22.744Z,77.99
2023-04-01T06:21:04.920Z,77.84
2023-04-01T06:23:53.696Z,77.77
2023-04-01T06:26:38.055Z,77.58
2023-04-01T06:29:37.534Z,77.46
2023-04-01T06:32:37.878Z,77.24
2023-04-01T06:35:47.891Z,77.34
2023-04-01T06:38:40.569Z,77.29
2023-04-01T06:41:50.458Z,77.34
2023-04-01T06:44:35.489Z,77.26
2023-04-01T06:47:40.349Z,77.48
2023-04-01T06:50:42.585Z,77.32
2023-04-01T06:53:57.448Z,77.01
2023-04-01T06:57:25.359Z,76.87
2023-04-01T07:00:01.225Z,76.96
2023-04-01T07:02:42.189Z,77.14
2023-04-01T07:05:17.771Z,76.76
2023-04-01T07:07:55.103Z,76.30
2023-04-01T07:10:38.767Z,76.02
2023-04-01T07:13:37.254Z,76.18
2023-04-01T07:16:24.246Z,76.29
2023-04-01T07:19:03.873Z,76.51
2023-04-01T07:21:54.415Z,76.42
2023-04-01T07:24:39.398Z,76.48
2023-04-01T07:27:17.243Z,76.24
2023-04-01T07:29:51.806Z,76.20
2023-04-01T07:32:39.344Z,76.35
2023-04-01T07:35:24.271Z,76.72
2023-04-01T07:38:11.571Z,76.81
2023-04-01T07:40:57.800Z,76.62
2023-04-01T07:43:53.920Z,77.07
2023-04-01T07:46:50.080Z,77.02
2023-04-01T07:49:29.344Z,76.43
2023-04-01T07:52:08.936Z,75.87
2023-04-01T07:54:52.876Z,75.40
2023-04-01T07:57:33.673Z,74.84
2023-04-01T08:00:18.044Z,74.40
2023-04-01T08:03:13.295Z,74.49
2023-04-01T08:05:53.497Z,74.52
2023-04-01T08:08:41.357Z,74.44
2023-04-01T08:11:45.425Z,74.33
2023-04-01T08:14:49.644Z,74.33
2023-04-01T08:18:07.094Z,73.26
2023-04-01T08:20:45.427Z,73.12
2023-04-01T08:23:22.958Z,72.86
2023-04-01T08:26:01.765Z,72.44
2023-04-01T08:28:40.140Z,72.71
2023-04-01T08:31:19.100Z,72.88
2023-04-01T08:33:51.942Z,72.43
2023-04-01T08:36:32.043Z,72.60
2023-04-01T08:39:22.306Z,72.55
2023-04-01T08:42:37.969Z,72.47
2023-04-01T08:45:44.550Z,72.34
2023-04-01T08:49:20.550Z,71.67
2023-04-01T08:52:25.213Z,71.55
2023-04-01T08:55:35.654Z,71.49
2023-04-01T08:58:41.558Z,71.37
2023-04-01T09:01:41.889Z,71.70
2023-04-01T09:04:40.312Z,71.87
2023-04-01T09:07:35.309Z,71.56
2023-04-01T09:10:45.887Z,71.66
2023-04-01T09:14:00.069Z,71.32
2023-04-01T09:17:15.566Z,71.19
2023-04-01T09:20:21.105Z,71.10
2023-04-01T09:23:10.282Z,70.77
2023-04-01T09:26:02.914Z,70.53
2023-04-01T09:28:44.194Z,71.06
2023-04-01T09:31:35.953Z,71.19
2023-04-01T09:34:55.288Z,71.01
2023-04-01T09:37:45.100Z,70.96
2023-04-01T09:40:28.128Z,71.28
2023-04-01T09:43:19.483Z,71.26
2023-04-01T09:46:15.850Z,71.32
2023-04-01T09:49:27.242Z,71.45
2023-04-01T09:52:13.126Z,71.04
2023-04-01T09:55:01.498Z,70.43
2023-04-01T09:57:55.069Z,69.34
2023-04-01T10:01:38.363Z,68.61
2023-04-01T10:05:07.508Z,68.46
2023-04-01T10:08:09.513Z,68.68
2023-04-01T10:11:48.514Z,68.84
2023-04-01T10:14:43.491Z,68.96
2023-04-01T10:18:11.834Z,69.14
2023-04-01T10:21:03.559Z,68.92
2023-04-01T10:23:56.531Z,69.23
2023-04-01T10:27:00.470Z,68.69
2023-04-01T10:30:29.894Z,68.65
2023-04-01T10:33:44.556Z,68.67
2023-04-01T10:36:53.416Z,67.97
2023-04-01T10:39:57.044Z,68.03
2023-04-01T10:43:09.209Z,68.23
2023-04-01T10:46:18.674Z,67.45
2023-04-01T10:49:27.033Z,67.87
2023-04-01T10:52:46.338Z,68.60
2023-04-01T10:55:57.853Z,68.53
2023-04-01T10:59:17.246Z,68.28
2023-04-01T11:02:45.258Z,67.89
2023-04-01T11:06:08.675Z,67.47
2023-04-01T11:09:22.224Z,66.85
2023-04-01T11:12:44.835Z,67.23
2023-04-01T11:15:55.148Z,67.02
2023-04-01T11:19:21.020Z,67.41
2023-04-01T11:22:13.804Z,65.81
2023-04-01T11:25:21.220Z,65.97
2023-04-01T11:28:54.049Z,66.74
2023-04-01T11:31:47.730Z,67.12
2023-04-01T11:34:40.781Z,67.78
2023-04-01T11:37:28.200Z,66.40
2023-04-01T11:40:48.493Z,65.62
2023-04-01T11:44:01.131Z,65.73
2023-04-01T11:47:20.096Z,65.63
2023-04-01T11:50:06.956Z,65.81
2023-04-01T11:53:17.407Z,65.82
2023-04-01T11:56:05.861Z,65.66
2023-04-01T11:59:07.371Z,65.96
2023-04-01T12:01:51.625Z,65.35
2023-04-01T12:04:39.977Z,64.67
2023-04-01T12:07:26.146Z,64.85
2023-04-01T12:10:09.831Z,64.19
2023-04-01T12:13:00.695Z,64.08
2023-04-01T12:15:47.554Z,63.72
2023-04-01T12:18:28.821Z,63.64
2023-04-01T12:21:26.600Z,64.11
2023-04-01T12:24:29.427Z,63.86
2023-04-01T12:27:18.428Z,63.05
2023-04-01T12:30:14.333Z,62.91
2023-04-01T12:33:05.599Z,63.21
2023-04-01T12:35:51.215Z,63.18
2023-04-01T12:38:39.244Z,61.07
2023-04-01T12:41:22.805Z,59.97
2023-04-01T12:44:37.297Z,58.77
2023-04-01T12:48:07.919Z,58.15
2023-04-01T12:51:05.182Z,58.21
2023-04-01T12:53:59.703Z,57.74
2023-04-01T12:56:47.432Z,57.17
2023-04-01T12:59:52.649Z,56.51
2023-04-01T13:02:41.250Z,56.31
2023-04-01T13:05:50.806Z,56.32
2023-04-01T13:08:39.168Z,56.49
2023-04-01T13:11:23.513Z,56.24
2023-04-01T13:14:37.341Z,56.44
2023-04-01T13:17:20.157Z,56.76
2023-04-01T13:20:05.734Z,57.16
2023-04-01T13:22:54.482Z,58.16
2023-04-01T13:25:36.635Z,59.15
2023-04-01T13:28:17.800Z,59.89
2023-04-01T13:30:58.944Z,60.54
2023-04-01T13:33:42.344Z,61.16
2023-04-01T13:36:30.002Z,61.76
2023-04-01T13:39:32.713Z,62.50
2023-04-01T13:42:20.182Z,63.25
2023-04-01T13:44:59.260Z,63.57
2023-04-01T13:48:05.726Z,63.64
2023-04-01T13:51:15.305Z,63.54
2023-04-01T13:54:16.250Z,63.18
2023-04-01T13:57:00.810Z,63.29
2023-04-01T14:00:07.012Z,63.47
2023-04-01T14:02:59.930Z,63.47
2023-04-01T14:05:53.610Z,63.82
2023-04-01T14:08:45.243Z,63.96
2023-04-01T14:11:30.716Z,63.90
2023-04-01T14:14:18.878Z,64.15
2023-04-01T14:17:22.713Z,64.28
2023-04-01T14:20:16.667Z,64.64
2023-04-01T14:23:07.103Z,65.02
2023-04-01T14:26:14.903Z,65.31
2023-04-01T14:28:58.263Z,65.57
2023-04-01T14:32:01.660Z,65.67
2023-04-01T14:34:47.944Z,65.79
2023-04-01T14:37:33.988Z,65.95
2023-04-01T14:40:28.945Z,66.01
2023-04-01T14:43:17.218Z,66.16
2023-04-01T14:46:25.203Z,66.39
2023-04-01T14:49:05.052Z,66.36
2023-04-01T14:51:41.912Z,66.57
2023-04-01T14:54:24.283Z,66.45
2023-04-01T14:57:16.349Z,66.69
2023-04-01T14:59:54.578Z,66.61
2023-04-01T15:02:48.214Z,66.42
2023-04-01T15:05:42.796Z,66.58
2023-04-01T15:08:25.123Z,66.72
2023-04-01T15:11:24.627Z,67.02
2023-04-01T15:14:28.041Z,67.13
2023-04-01T15:17:18.210Z,66.92
2023-04-01T15:20:11.835Z,67.37
2023-04-01T15:23:03.047Z,67.78
2023-04-01T15:26:13.166Z,67.97
2023-04-01T15:28:57.352Z,67.94
2023-04-01T15:31:41.078Z,68.25
2023-04-01T15:34:35.309Z,68.30
2023-04-01T15:37:21.344Z,68.01
2023-04-01T15:40:07.409Z,67.77
2023-04-01T15:42:58.716Z,67.70
2023-04-01T15:45:45.441Z,68.00
2023-04-01T15:48:45.125Z,68.07
2023-04-01T15:51:31.837Z,68.10
2023-04-01T15:54:27.499Z,68.09
2023-04-01T15:57:28.776Z,68.26
2023-04-01T16:00:31.336Z,68.15
2023-04-01T16:03:26.907Z,67.80
2023-04-01T16:06:40.016Z,67.47
2023-04-01T16:09:27.503Z,67.62
2023-04-01T16:12:07.869Z,67.75
2023-04-01T16:15:02.942Z,67.96
2023-04-01T16:18:03.832Z,68.05
2023-04-01T16:20:53.532Z,68.06
2023-04-01T16:23:39.165Z,67.91
2023-04-01T16:26:22.536Z,68.03
2023-04-01T16:29:06.853Z,68.11
2023-04-01T16:31:52.419Z,68.36
2023-04-01T16:34:32.315Z,68.37
2023-04-01T16:37:14.445Z,68.39
2023-04-01T16:39:57.717Z,68.42
2023-04-01T16:42:44.784Z,68.40
2023-04-01T16:45:34.023Z,68.58
2023-04-01T16:48:18.025Z,68.78
2023-04-01T16:51:06.037Z,68.87
2023-04-01T16:53:46.873Z,68.89
2023-04-01T16:56:27.166Z,68.97
2023-04-01T16:59:15.058Z,69.14
2023-04-01T17:01:56.705Z,69.20
2023-04-01T17:04:37.387Z,69.09
2023-04-01T17:07:25.730Z,69.01
2023-04-01T17:10:37.882Z,69.11
2023-04-01T17:13:37.467Z,69.13
2023-04-01T17:16:51.897Z,69.13
2023-04-01T17:19:50.331Z,69.18
2023-04-01T17:22:47.368Z,69.14
2023-04-01T17:25:51.082Z,69.32
2023-04-01T17:32:27.066Z,69.45
2023-04-01T17:35:20.249Z,69.53
2023-04-01T17:38:08.805Z,69.56
2023-04-01T17:41:00.194Z,69.61
2023-04-01T17:43:47.631Z,69.56
2023-04-01T17:46:38.844Z,69.51
2023-04-01T17:49:30.794Z,69.68
2023-04-01T17:52:20.394Z,69.76
2023-04-01T17:55:03.290Z,69.66
2023-04-01T17:57:58.137Z,69.62
2023-04-01T18:00:53.397Z,69.48
2023-04-01T18:03:57.803Z,69.53
2023-04-01T18:06:43.650Z,69.52
2023-04-01T18:09:38.098Z,69.51
2023-04-01T18:12:25.589Z,69.58
2023-04-01T18:18:39.506Z,69.67
2023-04-01T18:21:24.176Z,69.73
2023-04-01T18:24:09.755Z,69.77
2023-04-01T18:26:52.060Z,69.79
2023-04-01T18:29:42.069Z,69.77
2023-04-01T18:32:37.239Z,69.91
2023-04-01T18:35:30.159Z,69.86
2023-04-01T18:38:09.970Z,69.83
2023-04-01T18:40:53.834Z,69.86
2023-04-01T18:43:40.254Z,69.86
2023-04-01T18:46:26.973Z,70.01
2023-04-01T18:49:14.914Z,70.02
2023-04-01T18:51:56.065Z,70.12
2023-04-01T18:54:45.399Z,70.17
2023-04-01T18:57:25.521Z,70.42
2023-04-01T19:00:11.782Z,70.40
2023-04-01T19:02:56.381Z,70.27
2023-04-01T19:05:38.098Z,70.38
2023-04-01T19:08:31.530Z,70.28
2023-04-01T19:11:23.259Z,70.33
2023-04-01T19:14:26.609Z,70.32
2023-04-01T19:17:12.388Z,70.35
2023-04-01T19:20:07.025Z,70.44
2023-04-01T19:23:02.719Z,70.58
2023-04-01T19:25:44.046Z,70.59
2023-04-01T19:31:55.621Z,70.67
2023-04-01T19:34:49.382Z,70.40
2023-04-01T19:37:37.793Z,70.39
2023-04-01T19:40:35.918Z,70.50
2023-04-01T19:43:37.240Z,70.56
2023-04-01T19:46:27.721Z,70.65
2023-04-01T19:49:27.365Z,70.72
2023-04-01T19:52:11.087Z,70.58
2023-04-01T19:54:54.195Z,70.60
2023-04-01T19:57:40.809Z,70.54
2023-04-01T20:00:25.520Z,70.37
2023-04-01T20:03:17.587Z,70.55
2023-04-01T20:06:02.606Z,70.65
2023-04-01T20:08:45.795Z,70.67
2023-04-01T20:11:42.008Z,70.74
2023-04-01T20:14:24.917Z,70.85
2023-04-01T20:17:10.880Z,70.89
2023-04-01T20:19:52.162Z,71.01
2023-04-01T20:22:40.877Z,70.96
2023-04-01T20:25:23.603Z,71.05
2023-04-01T20:28:04.974Z,70.96
2023-04-01T20:31:15.790Z,71.00
2023-04-01T20:34:05.600Z,71.05
2023-04-01T20:36:49.126Z,71.09
2023-04-01T20:40:20.936Z,71.28
2023-04-01T20:43:19.800Z,71.22
2023-04-01T20:45:59.638Z,71.28
2023-04-01T20:48:57.435Z,71.36
2023-04-01T20:51:36.222Z,71.52
2023-04-01T20:54:28.034Z,71.64
2023-04-01T20:57:14.976Z,71.41
2023-04-01T21:00:35.081Z,71.56
2023-04-01T21:03:27.162Z,71.63
2023-04-01T21:06:45.648Z,71.48
2023-04-01T21:09:38.949Z,71.37
2023-04-01T21:12:27.882Z,71.49
2023-04-01T21:15:33.520Z,71.50
2023-04-01T21:18:41.849Z,71.62
2023-04-01T21:21:39.725Z,71.71
2023-04-01T21:24:49.536Z,71.67
2023-04-01T21:27:35.941Z,71.34
2023-04-01T21:30:28.848Z,71.20
2023-04-01T21:33:19.276Z,71.27
2023-04-01T21:36:05.819Z,71.25
2023-04-01T21:38:54.311Z,71.22
2023-04-01T21:41:34.164Z,71.10
2023-04-01T21:44:40.665Z,71.20
2023-04-01T21:48:03.596Z,71.30
2023-04-01T21:50:58.591Z,71.20
2023-04-01T21:54:06.825Z,71.04
2023-04-01T21:57:06.923Z,71.01
2023-04-01T22:00:25.445Z,71.22
2023-04-01T22:03:49.386Z,71.30
2023-04-01T22:06:31.410Z,71.36
2023-04-01T22:09:13.349Z,71.36
2023-04-01T22:11:56.425Z,71.21
2023-04-01T22:14:41.708Z,71.17
2023-04-01T22:17:24.378Z,71.15
2023-04-01T22:20:11.489Z,71.05
2023-04-01T22:23:04.857Z,71.05
2023-04-01T22:25:45.910Z,70.81
2023-04-01T22:28:25.148Z,70.99
2023-04-01T22:31:02.686Z,71.13
2023-04-01T22:33:43.514Z,71.09
2023-04-01T22:36:26.671Z,70.99
2023-04-01T22:39:31.661Z,71.13
2023-04-01T22:42:22.217Z,70.85
2023-04-01T22:45:14.411Z,70.75
2023-04-01T22:48:03.301Z,70.70
2023-04-01T22:50:42.625Z,70.63
2023-04-01T22:53:30.719Z,70.48
2023-04-01T22:56:08.333Z,70.43
2023-04-01T22:58:46.377Z,70.42
2023-04-01T23:01:28.008Z,70.26
2023-04-01T23:04:06.721Z,70.25
2023-04-01T23:06:47.220Z,70.13
2023-04-01T23:09:23.666Z,69.98
2023-04-01T23:12:00.869Z,69.90
2023-04-01T23:14:45.475Z,70.00
2023-04-01T23:17:33.550Z,69.86
2023-04-01T23:20:20.268Z,69.74
2023-04-01T23:23:08.650Z,69.72
2023-04-01T23:25:56.471Z,69.94
2023-04-01T23:28:44.588Z,69.83
2023-04-01T23:31:42.268Z,69.60
2023-04-01T23:34:30.706Z,69.78
2023-04-01T23:37:07.725Z,69.70
2023-04-01T23:39:42.899Z,69.56
2023-04-01T23:42:22.356Z,69.50
2023-04-01T23:44:59.436Z,69.59
2023-04-01T23:47:36.408Z,69.61
2023-04-01T23:50:16.279Z,69.43
2023-04-01T23:52:51.973Z,69.49
2023-04-01T23:55:28.269Z,69.09
2023-04-01T23:58:20.147Z,69.08
